17:54
Airports
History
Links
Donate
Help keep this website running!
PayPal
Bitcoin
This page is community maintained. The information is intended for PC simulator navigation or reference.
Always use approved charts for navigation.
CDT5
BUCTOUCHE
BUCTOUCHE (CDT5)
Baie-de-Bouctouche, Nouveau-Brunswick, Canada
(U)
Lat/Lng:46° 30' 33.71" N / 64° 41' 37.71" W
46.509364 / -64.693809
Elevation:57'ft / 17mMSL
ID / ICAO:CDT5
Runways:1
Longest:09-27
Asphalt 1,529m / 5,016ft
Nearby Weather17:00 GMT 2018-01-18
Nearby weather at CYQM, GREATER MONCTON INTL located 27.5 nautical miles from CDT5
Altimeter: 29.76
Visibility: 15.0 statute miles
Wind: 10 knots (from 240°)
Temp: -3°c / 27°f
Humidity: 86.0%

METAR: CYQM 181700Z 24010KT 15SM FEW008 OVC011 M03/M05 A2976 RMK SF1SC7 SLP082

(Powered by phpweather)
Airport Radio Frequencies
CTAF: 123.2
Nearby VORs <50NM
Nearby NDBs
Runway 09 / 27
Dimensions:1528.9 x 22.6m 5016' x 74'ft
Surface:Asphalt
Runway 09 [A]Runway 27 [B]
Heading:073°TH 253°TH
Lat:
Lng:
46° 30' 26.52"N
64° 42' 12.06"W
46° 30' 40.9"N
64° 41' 3.36"W
User Notes and Comments
46° 30' 33.71" N / 64° 41' 37.71" W
Distance To
Airport ID:
Nearby Airports
(U) Moncton McEwen 24.8 NM
CCG4 S 188°
(C) GREATER MONCTON INTL 27.5 NM
CYQM ( WX ) S 178°
(U) Summerside 41.2 NM
CYSU E 96°
(U) MIRAMICHI 49.7 NM
CYCH NW 313°
(U) CHIPMAN 62.9 NM
CCS4 WSW 246°
(U) DOAKTOWN 66.6 NM
CDU6 W 272°
4 Apple River 72.6 NM
CCA7 S 184°
VFR Chart
Flight Planning at SkyVector.com